KRMG/RMG METAR and TAF weather

Enter ICAO airport designator
Station Type Date Time Source
KRMG METAR 2019/08/26 06:53 UTC NOAA

KRMG 260653Z AUTO 14005KT 10SM OVC032 23/18 A3002 RMK AO2 SLP156 T02280178 $


Station Type Date Time Source
KRMG Decoded METAR 2019/08/26 06:53 UTC NOAA

Station name not available
Aug 26, 2019 - 02:53 AM EDT / 2019.08.26 0653 UTC
Wind: from the SE (140 degrees) at 6 MPH (5 KT):0
Visibility: 10 mile(s):0
Sky conditions: overcast
Temperature: 73.0 F (22.8 C)
Dew Point: 64.0 F (17.8 C)
Relative Humidity: 73%
Pressure (altimeter): 30.02 in. Hg (1016 hPa)
ob: KRMG 260653Z AUTO 14005KT 10SM OVC032 23/18 A3002 RMK AO2 SLP156 T02280178
cycle: 7

Station Type Date Time Source
KRMG TAF UTC NOAA

Error!

Example: see airport list